TFY weather

Tarfaya Airport
Tarfaya, LaĆ¢youne (EH) Province, Morocco

Public forecast

Using degrees Celsius for public forecast. Weather courtesy of forecast.io.

Closest aviation weather report (METAR) to Tarfaya Airport

Closest report is Hassan I Airport, 50.5 nm (93.5 km) SSW. Retrieved 2020/08/03 17:00 UTC (59 minutes ago):

GMML 031700Z 02027KT 4000 SA NSC 30/16 Q1012 NOSIG

Closest aviation forecast (TAF) to Tarfaya Airport

Closest forecast is Hassan I Airport, 50.5 nm (93.5 km) SSW. Retrieved 2020/08/03 12:18 UTC (6 hours ago):

TAF GMML 031100Z 0312/0418 02024KT 8000 NSC PROB30 TEMPO 0312/0318 01024G34KT 4000 SA BECMG 0400/0402 BKN010 BECMG 0410/0412 NSC